createdAt,value
2018-04-22T00:01:53.345Z,18.20
2018-04-22T00:04:19.765Z,18.20
2018-04-22T00:06:46.148Z,18.20
2018-04-22T00:09:12.562Z,18.20
2018-04-22T00:11:38.932Z,18.20
2018-04-22T00:14:05.354Z,18.10
2018-04-22T00:16:31.769Z,18.10
2018-04-22T00:18:58.205Z,18.10
2018-04-22T00:21:24.637Z,18.10
2018-04-22T00:23:51.049Z,18.00
2018-04-22T00:26:17.422Z,18.00
2018-04-22T00:28:44.548Z,17.90
2018-04-22T00:31:10.999Z,17.90
2018-04-22T00:33:38.129Z,17.90
2018-04-22T00:36:04.534Z,17.90
2018-04-22T00:38:30.942Z,17.90
2018-04-22T00:40:58.053Z,17.80
2018-04-22T00:43:24.444Z,17.80
2018-04-22T00:45:50.926Z,17.70
2018-04-22T00:48:18.168Z,17.70
2018-04-22T00:50:44.648Z,17.70
2018-04-22T00:53:11.124Z,17.70
2018-04-22T00:55:37.527Z,17.70
2018-04-22T00:58:03.918Z,17.60
2018-04-22T01:00:31.080Z,17.60
2018-04-22T01:02:57.477Z,17.60
2018-04-22T01:05:23.866Z,17.60
2018-04-22T01:07:50.274Z,17.50
2018-04-22T01:10:17.394Z,17.50
2018-04-22T01:12:43.831Z,17.50
2018-04-22T01:15:11.005Z,17.40
2018-04-22T01:17:37.517Z,17.40
2018-04-22T01:20:03.931Z,17.40
2018-04-22T01:22:30.396Z,17.40
2018-04-22T01:24:56.793Z,17.30
2018-04-22T01:27:23.193Z,17.30
2018-04-22T01:29:49.610Z,17.30
2018-04-22T01:32:17.442Z,17.20
2018-04-22T01:34:43.846Z,17.20
2018-04-22T01:37:10.264Z,17.20
2018-04-22T01:39:36.655Z,17.20
2018-04-22T01:42:03.198Z,17.10
2018-04-22T01:44:29.617Z,17.20
2018-04-22T01:46:56.001Z,17.10
2018-04-22T01:49:22.448Z,17.10
2018-04-22T01:51:48.859Z,17.10
2018-04-22T01:54:15.286Z,17.10
2018-04-22T01:56:41.689Z,17.20
2018-04-22T01:59:09.700Z,17.10
2018-04-22T02:01:36.107Z,17.10
2018-04-22T02:04:03.238Z,17.20
2018-04-22T02:06:29.675Z,17.10
2018-04-22T02:08:56.114Z,17.10
2018-04-22T02:11:23.237Z,17.10
2018-04-22T02:13:49.677Z,17.10
2018-04-22T02:16:16.055Z,17.10
2018-04-22T02:18:42.548Z,17.10
2018-04-22T02:21:09.069Z,17.10
2018-04-22T02:23:35.516Z,17.10
2018-04-22T02:26:01.941Z,17.10
2018-04-22T02:28:28.380Z,17.10
2018-04-22T02:30:54.752Z,17.00
2018-04-22T02:33:21.196Z,17.00
2018-04-22T02:35:47.602Z,16.90
2018-04-22T02:38:14.718Z,16.80
2018-04-22T02:40:41.101Z,16.80
2018-04-22T02:43:07.565Z,16.90
2018-04-22T02:45:33.949Z,16.80
2018-04-22T02:48:01.074Z,16.70
2018-04-22T02:50:27.497Z,16.70
2018-04-22T02:52:54.653Z,16.70
2018-04-22T02:55:21.052Z,16.70
2018-04-22T02:57:47.472Z,16.70
2018-04-22T03:00:13.860Z,16.70
2018-04-22T03:02:40.253Z,16.70
2018-04-22T03:05:06.720Z,16.70
2018-04-22T03:07:33.115Z,16.70
2018-04-22T03:09:59.505Z,16.70
2018-04-22T03:12:26.685Z,16.60
2018-04-22T03:14:53.100Z,16.70
2018-04-22T03:17:20.319Z,16.60
2018-04-22T03:19:47.536Z,16.60
2018-04-22T03:22:14.002Z,16.60
2018-04-22T03:24:40.412Z,16.60
2018-04-22T03:27:06.869Z,16.60
2018-04-22T03:29:33.769Z,16.50
2018-04-22T03:32:00.149Z,16.50
2018-04-22T03:34:26.611Z,16.50
2018-04-22T03:36:53.737Z,16.40
2018-04-22T03:39:20.187Z,16.40
2018-04-22T03:41:47.368Z,16.40
2018-04-22T03:44:13.745Z,16.40
2018-04-22T03:46:40.137Z,16.40
2018-04-22T03:49:06.581Z,16.40
2018-04-22T03:51:32.976Z,16.30
2018-04-22T03:53:59.480Z,16.30
2018-04-22T03:56:26.005Z,16.30
2018-04-22T03:58:52.403Z,16.30
2018-04-22T04:01:18.785Z,16.30
2018-04-22T04:03:45.201Z,16.30
2018-04-22T04:06:11.626Z,16.30
2018-04-22T04:08:38.079Z,16.30
2018-04-22T04:11:05.992Z,16.20
2018-04-22T04:13:32.377Z,16.20
2018-04-22T04:15:58.780Z,16.20
2018-04-22T04:21:48.772Z,16.20
2018-04-22T04:27:40.924Z,16.20
2018-04-22T04:30:07.378Z,16.20
2018-04-22T04:32:33.764Z,16.20
2018-04-22T04:35:00.912Z,16.20
2018-04-22T04:37:28.140Z,16.20
2018-04-22T04:39:54.541Z,16.20
2018-04-22T04:42:20.930Z,16.30
2018-04-22T04:44:48.086Z,16.30
2018-04-22T04:47:14.513Z,16.30
2018-04-22T04:49:41.657Z,16.40
2018-04-22T04:52:08.809Z,16.40
2018-04-22T04:54:35.973Z,16.50
2018-04-22T04:57:03.109Z,16.50
2018-04-22T04:59:30.325Z,16.60
2018-04-22T05:01:57.492Z,16.60
2018-04-22T05:04:23.861Z,16.60
2018-04-22T05:06:50.280Z,16.70
2018-04-22T05:09:16.700Z,16.80
2018-04-22T05:11:43.132Z,16.80
2018-04-22T05:14:09.540Z,17.10
2018-04-22T05:16:35.971Z,17.70
2018-04-22T05:19:02.417Z,18.50
2018-04-22T05:21:28.855Z,19.40
2018-04-22T05:23:55.245Z,20.20
2018-04-22T05:26:21.716Z,21.00
2018-04-22T05:28:48.161Z,21.80
2018-04-22T05:31:14.561Z,22.30
2018-04-22T05:33:41.732Z,22.70
2018-04-22T05:36:08.942Z,22.60
2018-04-22T05:38:35.315Z,22.60
2018-04-22T05:41:01.718Z,22.40
2018-04-22T05:43:28.927Z,22.10
2018-04-22T05:45:55.338Z,22.10
2018-04-22T05:48:21.724Z,22.70
2018-04-22T05:50:48.144Z,23.30
2018-04-22T05:53:14.522Z,24.10
2018-04-22T05:55:40.961Z,24.60
2018-04-22T05:58:07.412Z,24.70
2018-04-22T06:00:34.544Z,25.40
2018-04-22T06:03:02.441Z,25.70
2018-04-22T06:05:28.877Z,25.70
2018-04-22T06:07:56.015Z,25.80
2018-04-22T06:10:22.392Z,25.80
2018-04-22T06:12:48.805Z,25.60
2018-04-22T06:15:15.294Z,25.10
2018-04-22T06:17:41.717Z,24.70
2018-04-22T06:20:08.122Z,24.40
2018-04-22T06:22:34.562Z,24.00
2018-04-22T06:25:00.952Z,23.70
2018-04-22T06:27:28.097Z,23.60
2018-04-22T06:29:55.245Z,23.70
2018-04-22T06:32:22.380Z,23.90
2018-04-22T06:34:49.581Z,24.10
2018-04-22T06:37:16.001Z,24.00
2018-04-22T06:39:43.118Z,24.60
2018-04-22T06:42:09.543Z,24.50
2018-04-22T06:44:35.963Z,24.80
2018-04-22T06:47:02.354Z,24.90
2018-04-22T06:49:28.791Z,25.10
2018-04-22T06:51:55.918Z,25.60
2018-04-22T06:54:23.052Z,25.80
2018-04-22T06:56:49.442Z,25.80
2018-04-22T06:59:15.862Z,26.10
2018-04-22T07:01:42.273Z,26.50
2018-04-22T07:04:08.772Z,26.80
2018-04-22T07:06:35.184Z,27.10
2018-04-22T07:09:01.578Z,27.20
2018-04-22T07:11:30.697Z,27.00
2018-04-22T07:14:08.899Z,26.90
2018-04-22T07:16:36.711Z,26.80
2018-04-22T07:19:03.173Z,26.60
2018-04-22T07:21:30.329Z,26.60
2018-04-22T07:23:56.800Z,26.60
2018-04-22T07:26:23.213Z,26.80
2018-04-22T07:28:49.612Z,26.90
2018-04-22T07:31:16.357Z,27.00
2018-04-22T07:33:43.504Z,27.20
2018-04-22T07:36:10.734Z,27.50
2018-04-22T07:38:37.189Z,27.40
2018-04-22T07:41:04.363Z,28.60
2018-04-22T07:43:30.761Z,28.50
2018-04-22T07:45:57.925Z,29.90
2018-04-22T07:48:25.916Z,30.60
2018-04-22T07:50:53.041Z,31.40
2018-04-22T07:53:19.553Z,31.40
2018-04-22T07:55:46.717Z,32.70
2018-04-22T07:58:13.117Z,32.70
2018-04-22T08:00:39.532Z,33.70
2018-04-22T08:03:05.928Z,34.10
2018-04-22T08:05:33.156Z,35.60
2018-04-22T08:07:59.654Z,35.60
2018-04-22T08:10:26.102Z,36.60
2018-04-22T08:12:52.555Z,37.40
2018-04-22T08:15:19.096Z,38.00
2018-04-22T08:17:45.526Z,38.10
2018-04-22T08:20:11.939Z,39.10
2018-04-22T08:22:38.492Z,40.30
2018-04-22T08:25:04.890Z,41.20
2018-04-22T08:27:31.278Z,42.30
2018-04-22T08:29:58.432Z,43.20
2018-04-22T08:32:24.841Z,43.10
2018-04-22T08:34:52.097Z,43.20
2018-04-22T08:37:18.533Z,43.10
2018-04-22T08:39:44.942Z,43.40
2018-04-22T08:42:11.358Z,43.70
2018-04-22T08:44:37.791Z,43.10
2018-04-22T08:47:04.208Z,43.00
2018-04-22T08:49:30.622Z,42.80
2018-04-22T08:51:57.121Z,41.40
2018-04-22T08:54:23.528Z,40.40
2018-04-22T08:56:49.941Z,38.30
2018-04-22T08:59:16.386Z,36.40
2018-04-22T09:01:42.837Z,34.80
2018-04-22T09:04:09.248Z,33.30
2018-04-22T09:06:35.826Z,32.20
2018-04-22T09:09:02.292Z,31.30
2018-04-22T09:11:28.695Z,30.90
2018-04-22T09:13:55.962Z,30.10
2018-04-22T09:16:23.170Z,29.70
2018-04-22T09:18:49.549Z,29.70
2018-04-22T09:21:16.713Z,28.80
2018-04-22T09:23:43.214Z,28.70
2018-04-22T09:26:09.612Z,28.50
2018-04-22T09:28:36.028Z,28.20
2018-04-22T09:31:02.449Z,27.80
2018-04-22T09:33:28.860Z,27.70
2018-04-22T09:35:55.268Z,27.80
2018-04-22T09:38:21.717Z,27.80
2018-04-22T09:40:48.875Z,27.70
2018-04-22T09:43:16.041Z,27.80
2018-04-22T09:45:43.184Z,27.90
2018-04-22T09:48:09.623Z,27.90
2018-04-22T09:50:36.059Z,27.90
2018-04-22T09:53:02.496Z,27.70
2018-04-22T09:55:28.969Z,27.60
2018-04-22T09:57:55.528Z,27.70
2018-04-22T10:00:28.029Z,27.90
2018-04-22T10:02:55.205Z,28.10
2018-04-22T10:05:21.725Z,28.10
2018-04-22T10:07:48.129Z,28.10
2018-04-22T10:10:15.321Z,27.80
2018-04-22T10:12:42.086Z,27.80
2018-04-22T10:15:08.513Z,27.90
2018-04-22T10:17:34.960Z,28.00
2018-04-22T10:20:01.364Z,28.00
2018-04-22T10:22:27.778Z,28.00
2018-04-22T10:24:54.283Z,28.10
2018-04-22T10:27:21.437Z,28.10
2018-04-22T10:29:48.616Z,28.10
2018-04-22T10:32:15.073Z,28.10
2018-04-22T10:34:41.581Z,28.10
2018-04-22T10:37:08.718Z,28.10
2018-04-22T10:39:35.889Z,28.10
2018-04-22T10:42:02.460Z,28.10
2018-04-22T10:44:29.557Z,28.00
2018-04-22T10:46:56.029Z,27.90
2018-04-22T10:49:23.239Z,28.00
2018-04-22T10:51:49.923Z,27.90
2018-04-22T10:54:16.426Z,27.80
2018-04-22T10:56:42.892Z,27.80
2018-04-22T10:59:09.493Z,27.80
2018-04-22T11:01:35.917Z,27.70
2018-04-22T11:04:03.059Z,27.60
2018-04-22T11:06:29.479Z,27.60
2018-04-22T11:08:55.911Z,27.40
2018-04-22T11:11:22.307Z,27.30
2018-04-22T11:13:49.317Z,27.40
2018-04-22T11:16:16.557Z,27.60
2018-04-22T11:18:43.693Z,27.60
2018-04-22T11:21:10.083Z,27.60
2018-04-22T11:23:36.556Z,27.70
2018-04-22T11:26:03.018Z,27.80
2018-04-22T11:28:29.410Z,27.80
2018-04-22T11:30:55.858Z,27.90
2018-04-22T11:33:22.252Z,27.90
2018-04-22T11:35:48.617Z,27.80
2018-04-22T11:38:15.853Z,27.80
2018-04-22T11:40:42.313Z,27.80
2018-04-22T11:43:08.761Z,27.90
2018-04-22T11:45:35.926Z,28.00
2018-04-22T11:48:03.485Z,28.00
2018-04-22T11:50:29.857Z,28.00
2018-04-22T11:52:56.315Z,28.10
2018-04-22T11:55:22.745Z,28.10
2018-04-22T11:57:49.154Z,28.10
2018-04-22T12:00:15.823Z,28.20
2018-04-22T12:02:42.987Z,28.40
2018-04-22T12:05:09.364Z,28.40
2018-04-22T12:07:36.611Z,28.40
2018-04-22T12:10:03.079Z,28.40
2018-04-22T12:12:29.550Z,28.40
2018-04-22T12:14:58.574Z,28.30
2018-04-22T12:17:25.266Z,28.20
2018-04-22T12:19:52.478Z,28.10
2018-04-22T12:22:18.903Z,28.10
2018-04-22T12:24:45.324Z,28.10
2018-04-22T12:27:11.810Z,28.10
2018-04-22T12:29:39.127Z,28.20
2018-04-22T12:32:05.576Z,28.20
2018-04-22T12:34:32.017Z,28.30
2018-04-22T12:36:58.617Z,28.30
2018-04-22T12:39:25.007Z,28.40
2018-04-22T12:41:51.499Z,28.50
2018-04-22T12:44:18.012Z,28.50
2018-04-22T12:46:44.456Z,28.50
2018-04-22T12:49:10.893Z,28.60
2018-04-22T12:51:37.330Z,28.70
2018-04-22T12:54:03.728Z,28.70
2018-04-22T12:56:30.880Z,28.90
2018-04-22T12:58:58.060Z,28.90
2018-04-22T13:01:24.453Z,28.90
2018-04-22T13:03:51.692Z,28.90
2018-04-22T13:06:19.057Z,28.90
2018-04-22T13:08:46.205Z,29.00
2018-04-22T13:11:13.333Z,29.00
2018-04-22T13:13:40.529Z,29.00
2018-04-22T13:16:06.991Z,29.00
2018-04-22T13:18:33.546Z,29.00
2018-04-22T13:20:59.990Z,29.00
2018-04-22T13:23:26.429Z,29.10
2018-04-22T13:25:53.589Z,29.10
2018-04-22T13:28:20.766Z,29.10
2018-04-22T13:30:47.178Z,29.10
2018-04-22T13:33:14.318Z,29.00
2018-04-22T13:35:40.723Z,29.00
2018-04-22T13:38:07.137Z,28.90
2018-04-22T13:40:33.584Z,28.90
2018-04-22T13:43:00.016Z,28.90
2018-04-22T13:45:26.481Z,28.90
2018-04-22T13:47:53.641Z,29.00
2018-04-22T13:50:20.947Z,29.00
2018-04-22T13:52:47.385Z,29.00
2018-04-22T13:55:13.780Z,29.00
2018-04-22T13:57:40.219Z,29.00
2018-04-22T14:00:06.666Z,29.10
2018-04-22T14:02:33.116Z,29.10
2018-04-22T14:04:59.578Z,29.10
2018-04-22T14:07:25.977Z,29.20
2018-04-22T14:09:52.349Z,29.30
2018-04-22T14:12:18.779Z,29.30
2018-04-22T14:14:46.108Z,29.30
2018-04-22T14:17:13.728Z,29.20
2018-04-22T14:19:41.578Z,29.30
2018-04-22T14:22:07.964Z,29.40
2018-04-22T14:24:34.409Z,29.40
2018-04-22T14:27:00.842Z,29.50
2018-04-22T14:29:27.245Z,29.40
2018-04-22T14:31:53.672Z,29.40
2018-04-22T14:34:20.096Z,29.40
2018-04-22T14:36:46.520Z,29.20
2018-04-22T14:39:13.022Z,29.20
2018-04-22T14:41:39.522Z,29.10
2018-04-22T14:44:18.171Z,29.10
2018-04-22T14:46:44.647Z,29.10
2018-04-22T14:49:11.168Z,29.00
2018-04-22T14:51:38.325Z,28.90
2018-04-22T14:54:04.793Z,28.90
2018-04-22T14:56:31.227Z,29.00
2018-04-22T14:58:57.702Z,29.00
2018-04-22T15:01:24.882Z,28.90
2018-04-22T15:03:51.288Z,28.90
2018-04-22T15:06:17.709Z,28.80
2018-04-22T15:08:44.175Z,28.80
2018-04-22T15:11:11.406Z,28.60
2018-04-22T15:13:37.839Z,28.60
2018-04-22T15:16:04.302Z,28.60
2018-04-22T15:18:30.749Z,28.50
2018-04-22T15:20:57.191Z,28.50
2018-04-22T15:23:23.640Z,28.40
2018-04-22T15:25:50.092Z,28.40
2018-04-22T15:28:16.498Z,28.30
2018-04-22T15:30:42.970Z,28.30
2018-04-22T15:33:09.406Z,28.30
2018-04-22T15:35:35.801Z,28.30
2018-04-22T15:38:02.525Z,28.30
2018-04-22T15:40:29.014Z,28.30
2018-04-22T15:42:55.415Z,28.40
2018-04-22T15:45:21.845Z,28.40
2018-04-22T15:47:48.293Z,28.50
2018-04-22T15:50:14.703Z,28.60
2018-04-22T15:52:41.851Z,28.60
2018-04-22T15:55:08.441Z,28.60
2018-04-22T15:57:35.075Z,28.60
2018-04-22T16:00:01.545Z,28.60
2018-04-22T16:02:27.951Z,28.50
2018-04-22T16:04:54.466Z,28.50
2018-04-22T16:07:20.906Z,28.40
2018-04-22T16:09:47.298Z,28.30
2018-04-22T16:12:13.717Z,28.20
2018-04-22T16:14:40.256Z,28.10
2018-04-22T16:17:06.753Z,28.00
2018-04-22T16:19:33.944Z,27.90
2018-04-22T16:22:00.525Z,27.90
2018-04-22T16:24:27.058Z,27.80
2018-04-22T16:26:54.240Z,27.60
2018-04-22T16:29:20.707Z,27.50
2018-04-22T16:31:47.176Z,27.50
2018-04-22T16:34:13.646Z,27.50
2018-04-22T16:36:40.125Z,27.40
2018-04-22T16:39:06.577Z,27.40
2018-04-22T16:41:33.005Z,27.40
2018-04-22T16:43:59.550Z,27.50
2018-04-22T16:46:25.969Z,27.50
2018-04-22T16:48:53.309Z,27.50
2018-04-22T16:51:19.743Z,27.50
2018-04-22T16:53:46.147Z,27.60
2018-04-22T16:56:12.606Z,27.60
2018-04-22T16:58:39.054Z,27.60
2018-04-22T17:01:05.484Z,27.60
2018-04-22T17:03:32.140Z,27.50
2018-04-22T17:05:58.645Z,27.40
2018-04-22T17:08:25.123Z,27.40
2018-04-22T17:10:51.645Z,27.30
2018-04-22T17:13:18.067Z,27.20
2018-04-22T17:15:44.478Z,27.10
2018-04-22T17:18:10.944Z,27.00
2018-04-22T17:20:37.498Z,26.90
2018-04-22T17:23:03.883Z,26.80
2018-04-22T17:25:30.299Z,26.70
2018-04-22T17:27:56.806Z,26.50
2018-04-22T17:30:23.982Z,26.30
2018-04-22T17:32:50.387Z,26.30
2018-04-22T17:35:17.569Z,26.20
2018-04-22T17:37:43.969Z,26.10
2018-04-22T17:40:11.129Z,25.90
2018-04-22T17:42:37.631Z,25.90
2018-04-22T17:45:04.830Z,25.70
2018-04-22T17:47:31.296Z,25.70
2018-04-22T17:49:57.780Z,25.70
2018-04-22T17:52:24.194Z,25.50
2018-04-22T17:54:51.404Z,25.40
2018-04-22T17:57:17.978Z,25.40
2018-04-22T17:59:45.126Z,25.10
2018-04-22T18:02:11.601Z,25.10
2018-04-22T18:04:38.087Z,25.00
2018-04-22T18:07:04.539Z,25.00
2018-04-22T18:09:30.971Z,24.80
2018-04-22T18:11:58.171Z,24.70
2018-04-22T18:14:24.665Z,24.70
2018-04-22T18:16:51.861Z,24.50
2018-04-22T18:19:18.312Z,24.50
2018-04-22T18:21:44.705Z,24.40
2018-04-22T18:24:11.130Z,24.40
2018-04-22T18:26:37.581Z,24.30
2018-04-22T18:29:04.001Z,24.20
2018-04-22T18:31:30.489Z,24.20
2018-04-22T18:33:56.938Z,24.20
2018-04-22T18:36:24.126Z,24.00
2018-04-22T18:38:50.541Z,24.00
2018-04-22T18:41:17.713Z,23.90
2018-04-22T18:43:44.116Z,23.90
2018-04-22T18:46:11.275Z,23.70
2018-04-22T18:48:37.853Z,23.70
2018-04-22T18:51:04.301Z,23.70
2018-04-22T18:53:30.720Z,23.60
2018-04-22T18:55:57.207Z,23.60
2018-04-22T18:58:23.660Z,23.50
2018-04-22T19:00:50.142Z,23.40
2018-04-22T19:03:16.636Z,23.40
2018-04-22T19:05:43.048Z,23.30
2018-04-22T19:08:09.444Z,23.30
2018-04-22T19:10:35.879Z,23.20
2018-04-22T19:13:02.248Z,23.20
2018-04-22T19:15:28.680Z,23.20
2018-04-22T19:17:55.897Z,23.00
2018-04-22T19:20:22.309Z,23.00
2018-04-22T19:22:48.767Z,23.00
2018-04-22T19:25:15.327Z,23.00
2018-04-22T19:27:42.460Z,22.90
2018-04-22T19:30:08.902Z,22.80
2018-04-22T19:32:35.446Z,22.80
2018-04-22T19:35:01.868Z,22.80
2018-04-22T19:37:29.050Z,22.70
2018-04-22T19:39:55.505Z,22.70
2018-04-22T19:42:21.892Z,22.80
2018-04-22T19:44:49.961Z,22.70
2018-04-22T19:47:17.234Z,22.60
2018-04-22T19:49:43.655Z,22.60
2018-04-22T19:52:10.130Z,22.60
2018-04-22T19:54:36.642Z,22.60
2018-04-22T19:57:03.280Z,22.60
2018-04-22T19:59:30.401Z,22.60
2018-04-22T20:01:57.015Z,22.60
2018-04-22T20:04:23.655Z,22.60
2018-04-22T20:06:50.084Z,22.60
2018-04-22T20:09:16.564Z,22.50
2018-04-22T20:11:43.089Z,22.50
2018-04-22T20:14:09.535Z,22.50
2018-04-22T20:16:36.026Z,22.50
2018-04-22T20:19:03.380Z,22.50
2018-04-22T20:21:30.734Z,22.50
2018-04-22T20:23:57.213Z,22.50
2018-04-22T20:26:23.670Z,22.60
2018-04-22T20:28:50.089Z,22.50
2018-04-22T20:31:16.593Z,22.50
2018-04-22T20:33:43.092Z,22.50
2018-04-22T20:36:09.639Z,22.40
2018-04-22T20:38:36.095Z,22.40
2018-04-22T20:41:03.264Z,22.30
2018-04-22T20:43:29.863Z,22.30
2018-04-22T20:45:56.370Z,22.30
2018-04-22T20:48:22.794Z,22.20
2018-04-22T20:50:49.342Z,22.10
2018-04-22T20:53:15.862Z,22.10
2018-04-22T20:55:42.339Z,22.10
2018-04-22T20:58:09.518Z,22.00
2018-04-22T21:00:35.985Z,21.90
2018-04-22T21:03:02.557Z,21.90
2018-04-22T21:05:28.958Z,21.90
2018-04-22T21:07:55.377Z,21.80
2018-04-22T21:10:21.836Z,21.80
2018-04-22T21:12:48.240Z,21.80
2018-04-22T21:15:14.763Z,21.80
2018-04-22T21:17:41.186Z,21.70
2018-04-22T21:20:07.639Z,21.70
2018-04-22T21:22:34.118Z,21.70
2018-04-22T21:25:00.562Z,21.80
2018-04-22T21:27:27.762Z,21.80
2018-04-22T21:29:54.452Z,21.80
2018-04-22T21:32:20.966Z,21.80
2018-04-22T21:34:47.440Z,21.80
2018-04-22T21:37:13.922Z,21.80
2018-04-22T21:39:40.321Z,21.80
2018-04-22T21:42:06.729Z,21.70
2018-04-22T21:44:33.893Z,21.60
2018-04-22T21:47:01.041Z,21.50
2018-04-22T21:49:28.193Z,21.50
2018-04-22T21:51:55.375Z,21.40
2018-04-22T21:54:21.803Z,21.40
2018-04-22T21:56:48.288Z,21.30
2018-04-22T21:59:14.782Z,21.20
2018-04-22T22:01:41.254Z,21.20
2018-04-22T22:04:07.666Z,21.10
2018-04-22T22:06:35.044Z,21.10
2018-04-22T22:09:01.478Z,21.00
2018-04-22T22:11:28.647Z,21.00
2018-04-22T22:13:55.854Z,21.00
2018-04-22T22:16:22.237Z,21.00
2018-04-22T22:18:49.405Z,21.00
2018-04-22T22:21:15.893Z,21.00
2018-04-22T22:23:42.386Z,21.00
2018-04-22T22:26:08.792Z,21.00
2018-04-22T22:28:35.237Z,20.90
2018-04-22T22:31:01.646Z,20.90
2018-04-22T22:33:29.464Z,20.80
2018-04-22T22:35:55.878Z,20.80
2018-04-22T22:38:22.358Z,20.80
2018-04-22T22:40:50.242Z,20.70
2018-04-22T22:43:17.786Z,20.70
2018-04-22T22:45:45.678Z,20.60
2018-04-22T22:48:12.052Z,20.60
2018-04-22T22:50:39.433Z,20.50
2018-04-22T22:53:05.859Z,20.50
2018-04-22T22:55:32.321Z,20.40
2018-04-22T22:57:58.746Z,20.30
2018-04-22T23:00:25.149Z,20.20
2018-04-22T23:02:51.571Z,20.10
2018-04-22T23:05:18.056Z,20.10
2018-04-22T23:07:45.939Z,19.90
2018-04-22T23:10:13.156Z,19.80
2018-04-22T23:12:39.692Z,19.80
2018-04-22T23:15:06.094Z,19.80
2018-04-22T23:17:32.493Z,19.70
2018-04-22T23:20:00.654Z,19.70
2018-04-22T23:22:27.168Z,19.70
2018-04-22T23:24:53.658Z,19.70
2018-04-22T23:27:20.131Z,19.70
2018-04-22T23:29:46.521Z,19.70
2018-04-22T23:32:13.045Z,19.60
2018-04-22T23:34:39.473Z,19.60
2018-04-22T23:37:05.864Z,19.50
2018-04-22T23:39:33.036Z,19.30
2018-04-22T23:42:00.212Z,19.20
2018-04-22T23:44:26.704Z,19.20
2018-04-22T23:46:54.576Z,19.10
2018-04-22T23:49:21.002Z,19.00
2018-04-22T23:51:47.408Z,19.00
2018-04-22T23:54:13.868Z,18.90
2018-04-22T23:56:40.348Z,18.90
2018-04-22T23:59:06.765Z,18.80
